Time;durP1;ratioP1;P1;durP2;ratioP2;P2;SDS_P1;SDS_P2;PMS_P1;PMS_P2;Temp;Humidity;BMP_temperature;BMP_pressure;BME280_temperature;BME280_humidity;BME280_pressure;Samples;Min_cycle;Max_cycle;Signal;HPM_P1;HPM_P2
2022/05/26 00:02:53;;;;;;;3.90;1.23;;;;;;;11.02;86.02;98097.53;6280661;28;20704;-43
2022/05/26 00:05:55;;;;;;;1.97;1.07;;;;;;;11.12;85.33;98092.41;6280929;28;20593;-44
2022/05/26 00:08:58;;;;;;;1.03;1.03;;;;;;;11.19;85.30;98094.44;6280513;28;20230;-44
2022/05/26 00:12:00;;;;;;;2.60;1.10;;;;;;;11.16;84.97;98097.34;6263306;28;20730;-43
2022/05/26 00:15:04;;;;;;;2.00;1.03;;;;;;;11.10;85.48;98101.28;6258199;28;20220;-43
2022/05/26 00:18:07;;;;;;;1.63;1.00;;;;;;;10.98;85.44;98096.91;6276790;28;20665;-41
2022/05/26 00:21:09;;;;;;;1.70;1.17;;;;;;;11.01;85.64;98101.97;6248413;28;20676;-43
2022/05/26 00:24:11;;;;;;;2.77;1.10;;;;;;;10.99;85.77;98101.25;6271328;28;20288;-43
2022/05/26 00:27:13;;;;;;;1.17;1.00;;;;;;;10.93;86.07;98106.16;6280239;28;20223;-45
2022/05/26 00:30:15;;;;;;;0.80;0.80;;;;;;;10.91;85.96;98097.50;6280132;28;20222;-42
2022/05/26 00:33:17;;;;;;;2.90;1.67;;;;;;;10.91;85.99;98108.91;6280683;28;20255;-42
2022/05/26 00:36:38;;;;;;;2.60;1.47;;;;;;;10.99;87.14;98098.59;6280489;28;20303;-43
2022/05/26 00:39:40;;;;;;;2.87;1.57;;;;;;;11.27;86.79;98107.09;6280692;28;20238;-44
2022/05/26 00:42:42;;;;;;;1.80;1.70;;;;;;;11.59;86.11;98092.22;6279620;28;20719;-43
2022/05/26 00:45:54;;;;;;;1.47;1.30;;;;;;;11.80;85.07;98095.03;6280809;28;20230;-43
2022/05/26 00:49:00;;;;;;;2.80;1.50;;;;;;;11.97;84.54;98099.00;6280977;28;20614;-41
2022/05/26 00:52:04;;;;;;;2.43;1.47;;;;;;;12.03;83.99;98103.81;6262601;28;20788;-42
2022/05/26 00:55:13;;;;;;;1.60;1.50;;;;;;;12.22;83.38;98100.53;6280557;28;20847;-41
2022/05/26 00:58:30;;;;;;;4.20;1.90;;;;;;;12.43;82.21;98101.44;6279204;28;20226;-43
2022/05/26 01:01:51;;;;;;;1.50;1.40;;;;;;;12.60;80.86;98098.25;6280143;28;20231;-43
2022/05/26 01:04:58;;;;;;;2.30;1.10;;;;;;;12.67;80.56;98088.88;6278878;28;20588;-41
2022/05/26 01:08:00;;;;;;;1.97;1.37;;;;;;;12.66;80.01;98089.00;6279622;28;20244;-41
2022/05/26 01:11:02;;;;;;;3.53;1.37;;;;;;;12.78;78.91;98087.94;6279304;28;20333;-41
2022/05/26 01:14:11;;;;;;;1.47;1.30;;;;;;;12.87;79.21;98092.50;6278986;28;20283;-42
2022/05/26 01:17:16;;;;;;;1.87;1.60;;;;;;;12.88;78.92;98095.00;6279388;28;20327;-44
2022/05/26 01:20:24;;;;;;;4.60;1.23;;;;;;;12.83;79.41;98086.63;6279098;28;20326;-44
2022/05/26 01:23:57;;;;;;;4.80;1.17;;;;;;;12.74;79.41;98090.03;6279233;28;20249;-41
2022/05/26 01:27:24;;;;;;;1.00;0.90;;;;;;;12.79;79.60;98087.00;6277934;28;20697;-42
2022/05/26 01:30:58;;;;;;;1.73;1.10;;;;;;;12.81;78.95;98085.06;6278405;28;20307;-43
2022/05/26 01:34:16;;;;;;;2.00;1.13;;;;;;;12.81;78.94;98095.66;6272008;28;20865;-42
2022/05/26 01:37:32;;;;;;;0.80;0.80;;;;;;;12.86;77.85;98093.47;6279182;28;20232;-45
2022/05/26 01:40:40;;;;;;;1.53;1.10;;;;;;;12.94;77.08;98091.03;6278529;28;20288;-45
2022/05/26 01:44:04;;;;;;;1.30;1.00;;;;;;;12.98;76.91;98083.69;6272402;28;20715;-42
2022/05/26 01:47:17;;;;;;;1.57;0.97;;;;;;;12.93;77.43;98079.59;6278731;28;20234;-43
2022/05/26 01:50:28;;;;;;;1.33;1.00;;;;;;;12.97;77.26;98087.28;6278481;28;22305;-43
2022/05/26 01:53:48;;;;;;;1.00;0.70;;;;;;;13.01;76.67;98089.53;6278774;28;20226;-42
2022/05/26 01:57:16;;;;;;;2.83;1.10;;;;;;;13.09;75.77;98075.63;6277921;28;20231;-42
2022/05/26 02:00:20;;;;;;;1.57;0.93;;;;;;;13.15;75.61;98078.66;6261117;28;20218;-44
2022/05/26 02:03:26;;;;;;;1.40;1.00;;;;;;;13.13;75.52;98074.44;6277900;28;20234;-42
2022/05/26 02:06:32;;;;;;;1.03;0.90;;;;;;;13.17;75.06;98086.50;6278551;28;20242;-42
2022/05/26 02:09:41;;;;;;;3.80;0.90;;;;;;;13.19;75.34;98090.66;6278509;28;20237;-43
2022/05/26 02:12:48;;;;;;;2.00;1.00;;;;;;;13.18;75.45;98085.50;6278392;28;20236;-45
2022/05/26 02:15:55;;;;;;;0.93;0.90;;;;;;;13.11;75.65;98084.31;6277895;28;20234;-46
2022/05/26 02:19:07;;;;;;;1.90;0.97;;;;;;;13.11;75.44;98076.34;6277972;28;20234;-42
2022/05/26 02:22:19;;;;;;;1.53;0.80;;;;;;;13.11;75.42;98081.66;6278710;28;20709;-42
2022/05/26 02:25:25;;;;;;;1.20;1.10;;;;;;;13.17;74.17;98087.34;6277779;28;20277;-42
2022/05/26 02:29:50;;;;;;;1.40;1.03;;;;;;;13.23;74.07;98097.41;6278917;28;20238;-43
2022/05/26 02:31:53;;;;;;;1.10;1.00;;;;;;;13.17;74.68;98095.28;6278410;28;20258;-44
2022/05/26 02:34:59;;;;;;;2.10;1.00;;;;;;;13.18;75.44;98096.94;6278262;28;20291;-46
2022/05/26 02:38:09;;;;;;;1.10;0.70;;;;;;;13.07;76.09;98097.00;6282051;28;20308;-45
2022/05/26 02:41:11;;;;;;;1.77;0.83;;;;;;;12.96;76.32;98098.84;6282822;28;20721;-46
2022/05/26 02:44:14;;;;;;;1.10;0.90;;;;;;;13.02;75.49;98093.88;6283276;28;20685;-45
2022/05/26 02:47:31;;;;;;;0.90;0.90;;;;;;;13.11;74.92;98100.22;6283401;28;20369;-42
2022/05/26 02:50:45;;;;;;;0.80;0.80;;;;;;;12.95;75.40;98100.66;6283077;28;20231;-43
2022/05/26 02:54:00;;;;;;;0.80;0.63;;;;;;;12.75;75.99;98102.31;6283148;28;20251;-42
2022/05/26 02:57:12;;;;;;;1.07;0.80;;;;;;;12.48;77.41;98097.44;6282977;28;20225;-41
2022/05/26 03:00:29;;;;;;;0.87;0.70;;;;;;;12.29;78.16;98091.13;6282918;28;20218;-46
2022/05/26 03:03:47;;;;;;;2.67;0.80;;;;;;;12.27;77.76;98101.84;6281093;28;20238;-44
2022/05/26 03:06:57;;;;;;;0.80;0.80;;;;;;;12.13;78.64;98095.00;6283402;28;20325;-44
2022/05/26 03:10:05;;;;;;;2.57;0.83;;;;;;;12.02;79.00;98112.69;6282301;28;20246;-44
2022/05/26 03:13:07;;;;;;;0.80;0.70;;;;;;;12.13;78.70;98100.31;6281671;28;20355;-44
2022/05/26 03:16:10;;;;;;;5.00;1.10;;;;;;;12.09;78.48;98105.94;6281700;28;20245;-45
2022/05/26 03:19:13;;;;;;;0.80;0.80;;;;;;;11.88;79.65;98102.38;6282302;28;20226;-43
2022/05/26 03:22:16;;;;;;;1.07;0.70;;;;;;;11.69;80.62;98119.63;6281518;28;20719;-43
2022/05/26 03:25:31;;;;;;;2.33;1.03;;;;;;;11.57;81.38;98120.59;6282641;28;20604;-46
2022/05/26 03:28:34;;;;;;;1.00;0.90;;;;;;;11.42;81.98;98119.97;6282376;28;20714;-43
2022/05/26 03:31:36;;;;;;;2.10;0.70;;;;;;;11.31;81.93;98124.38;6281655;28;20231;-47
2022/05/26 03:41:21;;;;;;;0.83;0.83;;;;;;;11.10;82.79;98146.19;6281017;28;20237;-44
2022/05/26 03:44:27;;;;;;;1.53;0.80;;;;;;;11.08;83.03;98148.09;6281214;28;20249;-43
2022/05/26 03:47:30;;;;;;;1.03;0.80;;;;;;;11.06;83.21;98154.47;6281217;28;20237;-44
2022/05/26 03:50:33;;;;;;;1.43;0.97;;;;;;;11.09;83.37;98156.84;6281422;28;20261;-45
2022/05/26 03:53:36;;;;;;;0.80;0.80;;;;;;;11.10;83.33;98153.25;6281042;28;20662;-45
2022/05/26 03:56:38;;;;;;;0.93;0.83;;;;;;;11.06;83.43;98157.94;6263093;28;20374;-45
2022/05/26 03:59:41;;;;;;;1.73;0.87;;;;;;;11.00;83.85;98157.53;6280662;28;20282;-43
2022/05/26 04:02:44;;;;;;;0.90;0.77;;;;;;;10.96;84.20;98154.31;6280423;28;20242;-47
2022/05/26 04:05:46;;;;;;;1.03;0.90;;;;;;;10.94;84.40;98165.94;6281245;28;20233;-45
2022/05/26 04:08:48;;;;;;;0.90;0.87;;;;;;;10.93;84.64;98170.38;6280282;28;20245;-43
2022/05/26 04:11:51;;;;;;;0.80;0.80;;;;;;;10.94;84.76;98174.69;6280474;28;20234;-48
2022/05/26 04:14:53;;;;;;;1.13;0.80;;;;;;;10.95;85.00;98170.25;6279834;28;20249;-47
2022/05/26 04:17:55;;;;;;;1.20;1.10;;;;;;;11.00;85.38;98174.25;6280749;28;20245;-45
2022/05/26 04:21:10;;;;;;;0.90;0.90;;;;;;;11.06;85.03;98176.44;6281451;28;20325;-45
2022/05/26 04:24:12;;;;;;;0.90;0.90;;;;;;;11.11;85.28;98176.09;6279420;28;20239;-46
2022/05/26 04:27:18;;;;;;;1.07;0.70;;;;;;;11.12;85.24;98176.94;6280289;28;20206;-43
2022/05/26 04:30:22;;;;;;;1.47;0.80;;;;;;;11.13;85.45;98178.63;6280071;28;20438;-45
2022/05/26 04:33:25;;;;;;;0.80;0.80;;;;;;;11.18;85.43;98177.31;6280332;28;20333;-42
2022/05/26 04:36:27;;;;;;;1.13;0.70;;;;;;;11.21;85.58;98185.00;6280699;28;20571;-42
2022/05/26 04:39:30;;;;;;;2.10;0.97;;;;;;;11.27;85.28;98181.94;6262076;28;20233;-42
2022/05/26 04:42:32;;;;;;;0.60;0.60;;;;;;;11.31;85.33;98187.81;6279990;28;20590;-43
2022/05/26 04:45:35;;;;;;;1.00;0.87;;;;;;;11.40;85.47;98187.94;6279467;28;20664;-42
2022/05/26 04:48:37;;;;;;;1.20;0.83;;;;;;;11.56;85.15;98192.94;6279089;28;20237;-41
2022/05/26 04:51:39;;;;;;;2.53;0.60;;;;;;;11.79;83.99;98188.53;6279460;28;20705;-42
2022/05/26 04:54:44;;;;;;;0.57;0.57;;;;;;;12.17;81.53;98197.00;6278703;28;20320;-42
2022/05/26 04:57:48;;;;;;;1.80;0.70;;;;;;;12.58;79.20;98191.06;6279325;28;20233;-43
2022/05/26 05:00:50;;;;;;;0.70;0.70;;;;;;;12.82;77.19;98190.88;6278390;28;20313;-42
2022/05/26 05:03:53;;;;;;;0.40;0.40;;;;;;;13.20;74.49;98189.56;6279317;28;20705;-42
2022/05/26 05:06:56;;;;;;;0.40;0.40;;;;;;;13.52;72.65;98198.34;6279205;28;20697;-43
2022/05/26 05:09:58;;;;;;;1.23;0.50;;;;;;;13.72;71.12;98207.28;6278365;28;20238;-41
2022/05/26 05:13:00;;;;;;;1.10;0.40;;;;;;;13.99;70.42;98198.78;6278576;28;20233;-42
2022/05/26 05:16:12;;;;;;;0.40;0.40;;;;;;;14.13;69.71;98209.06;6278153;28;20233;-43
2022/05/26 05:19:17;;;;;;;1.33;0.80;;;;;;;14.24;69.42;98210.78;6278891;28;20349;-43
2022/05/26 05:22:34;;;;;;;0.43;0.43;;;;;;;14.35;68.84;98214.19;6278078;28;20784;-43
2022/05/26 05:25:41;;;;;;;1.33;0.40;;;;;;;14.37;69.26;98217.53;6277893;28;20234;-42
2022/05/26 05:28:50;;;;;;;0.50;0.50;;;;;;;14.36;69.91;98210.56;6256048;28;20246;-42
2022/05/26 05:31:57;;;;;;;0.47;0.40;;;;;;;14.44;69.46;98214.38;6283042;28;20384;-42
2022/05/26 05:35:10;;;;;;;1.40;0.50;;;;;;;14.49;69.10;98215.66;6277577;28;20242;-41
2022/05/26 05:38:13;;;;;;;1.43;0.70;;;;;;;14.52;69.35;98214.56;6277378;28;20241;-42
2022/05/26 05:41:16;;;;;;;0.40;0.40;;;;;;;14.55;69.70;98224.91;6279126;28;20699;-43
2022/05/26 05:44:18;;;;;;;0.50;0.40;;;;;;;14.53;70.51;98217.06;6278671;28;20642;-42
2022/05/26 05:47:20;;;;;;;1.90;0.50;;;;;;;14.56;69.97;98216.81;6278563;28;20229;-42
2022/05/26 05:50:23;;;;;;;0.50;0.50;;;;;;;14.63;70.17;98219.75;6278679;28;20230;-43
2022/05/26 05:53:26;;;;;;;0.83;0.47;;;;;;;14.60;70.31;98212.06;6277610;28;20604;-44
2022/05/26 05:56:28;;;;;;;0.60;0.60;;;;;;;14.72;69.38;98211.81;6278280;28;20365;-44
2022/05/26 05:59:30;;;;;;;0.97;0.50;;;;;;;14.89;68.10;98217.44;6277323;28;20326;-43
2022/05/26 06:02:33;;;;;;;1.53;0.50;;;;;;;15.07;66.99;98213.16;6278124;28;20230;-45
2022/05/26 06:05:37;;;;;;;0.87;0.47;;;;;;;15.17;67.01;98211.34;6278802;28;20241;-43
2022/05/26 06:08:39;;;;;;;0.57;0.57;;;;;;;15.27;67.07;98214.00;6278376;28;20597;-42
2022/05/26 06:11:42;;;;;;;0.50;0.50;;;;;;;15.33;67.06;98202.81;6278278;28;20722;-43
2022/05/26 06:14:46;;;;;;;0.40;0.40;;;;;;;15.35;67.88;98203.50;6277434;28;20238;-45
2022/05/26 06:17:48;;;;;;;0.57;0.50;;;;;;;15.39;67.64;98210.22;6277859;28;20238;-42
2022/05/26 06:20:50;;;;;;;0.40;0.40;;;;;;;15.55;67.15;98207.88;6277961;28;20283;-42
2022/05/26 06:23:56;;;;;;;1.13;0.50;;;;;;;15.72;67.71;98215.13;6277832;28;20292;-43
2022/05/26 06:26:59;;;;;;;1.30;0.57;;;;;;;15.84;67.11;98218.47;6259150;28;20317;-42
2022/05/26 06:30:03;;;;;;;0.47;0.47;;;;;;;16.10;65.43;98219.53;6276095;28;20227;-43
2022/05/26 06:40:06;;;;;;;2.47;0.53;;;;;;;16.95;62.14;98221.16;6153094;28;20720;-44
2022/05/26 06:43:08;;;;;;;0.50;0.50;;;;;;;17.32;61.61;98221.03;6151143;28;20241;-44
2022/05/26 06:46:11;;;;;;;0.77;0.40;;;;;;;17.44;61.37;98225.16;6135228;28;20597;-43
2022/05/26 06:49:13;;;;;;;1.07;0.50;;;;;;;17.53;59.23;98218.91;6150838;28;20717;-46
2022/05/26 06:52:18;;;;;;;0.50;0.50;;;;;;;17.84;57.38;98222.03;6150975;28;20277;-44
2022/05/26 06:55:20;;;;;;;3.63;0.50;;;;;;;18.15;57.37;98224.25;6152438;28;20233;-42
2022/05/26 06:58:23;;;;;;;0.70;0.60;;;;;;;18.33;57.08;98220.50;6152680;28;20244;-42
2022/05/26 07:01:26;;;;;;;1.23;0.50;;;;;;;18.58;57.54;98236.69;6152862;28;20332;-42
2022/05/26 07:04:29;;;;;;;0.40;0.40;;;;;;;18.86;56.73;98229.31;6151073;28;20237;-42
2022/05/26 07:07:32;;;;;;;0.63;0.63;;;;;;;19.25;55.34;98242.97;6151626;28;20776;-46
2022/05/26 07:10:35;;;;;;;1.53;0.50;;;;;;;19.55;54.47;98228.16;6151512;28;20332;-44
2022/05/26 07:13:37;;;;;;;1.33;0.40;;;;;;;20.02;53.81;98241.69;6183813;28;20576;-43
2022/05/26 07:16:40;;;;;;;1.60;0.57;;;;;;;20.37;51.34;98240.50;6244868;28;20364;-46
2022/05/26 07:19:43;;;;;;;1.77;0.77;;;;;;;20.14;49.88;98251.91;6253105;28;20733;-45
2022/05/26 07:22:45;;;;;;;1.13;0.60;;;;;;;20.34;49.48;98244.34;6253110;28;20231;-43
2022/05/26 07:25:48;;;;;;;0.70;0.30;;;;;;;20.61;48.64;98251.16;6256940;28;20318;-43
2022/05/26 07:28:51;;;;;;;0.67;0.50;;;;;;;21.49;47.50;98238.34;6256481;28;20678;-44
2022/05/26 07:31:54;;;;;;;1.77;0.60;;;;;;;21.89;47.68;98237.19;6257957;28;20775;-43
2022/05/26 07:34:57;;;;;;;0.50;0.50;;;;;;;22.43;47.15;98231.69;6254882;28;20230;-47
2022/05/26 07:41:25;;;;;;;0.70;0.60;;;;;;;23.11;45.08;98230.53;6256388;28;20250;-44
2022/05/26 07:44:29;;;;;;;1.33;0.40;;;;;;;22.61;48.22;98242.91;6244622;28;20238;-42
2022/05/26 07:47:31;;;;;;;1.20;0.40;;;;;;;22.55;47.03;98240.97;6251748;28;20311;-43
2022/05/26 07:50:34;;;;;;;0.60;0.50;;;;;;;22.32;45.57;98230.28;6254671;28;20370;-44
2022/05/26 07:53:36;;;;;;;1.30;0.53;;;;;;;22.58;44.87;98245.97;6256094;28;20235;-44
2022/05/26 07:56:38;;;;;;;0.50;0.50;;;;;;;22.85;44.79;98244.53;6255879;28;20239;-43
2022/05/26 07:59:40;;;;;;;0.60;0.47;;;;;;;23.27;43.97;98248.31;6248908;28;20288;-44
2022/05/26 08:02:43;;;;;;;0.60;0.40;;;;;;;22.95;45.04;98250.44;6261020;28;20376;-44
2022/05/26 08:05:45;;;;;;;2.23;0.50;;;;;;;22.89;46.71;98261.94;6276204;28;20230;-42
2022/05/26 08:08:47;;;;;;;1.70;0.40;;;;;;;22.84;45.69;98256.31;6279600;28;21055;-43
2022/05/26 08:11:51;;;;;;;1.27;0.60;;;;;;;23.17;44.37;98262.94;6279411;28;20234;-42
2022/05/26 08:14:54;;;;;;;0.40;0.40;;;;;;;23.29;42.51;98249.81;6276643;28;20554;-43
2022/05/26 08:17:56;;;;;;;0.40;0.40;;;;;;;23.69;43.73;98251.09;6279823;28;20348;-45
2022/05/26 08:21:14;;;;;;;1.30;0.50;;;;;;;23.86;42.93;98257.91;6279844;28;20744;-44
2022/05/26 08:24:19;;;;;;;1.10;0.60;;;;;;;24.19;42.25;98246.56;6278760;28;20323;-45
2022/05/26 08:27:22;;;;;;;0.67;0.53;;;;;;;24.66;41.92;98247.78;6278615;28;20576;-43
2022/05/26 08:30:24;;;;;;;0.50;0.45;;;;;;;24.63;41.63;98249.00;6277453;28;20435;-45
2022/05/26 08:33:29;;;;;;;1.27;0.30;;;;;;;24.56;41.40;98248.09;6279352;28;20228;-42
2022/05/26 08:36:33;;;;;;;1.43;0.47;;;;;;;24.73;42.44;98254.03;6278559;28;20596;-43
2022/05/26 08:39:35;;;;;;;2.67;0.60;;;;;;;24.88;41.57;98252.03;6279184;28;20276;-47
2022/05/26 08:42:39;;;;;;;0.30;0.30;;;;;;;25.16;41.42;98257.38;6276065;28;20352;-44
2022/05/26 08:45:45;;;;;;;2.10;0.60;;;;;;;24.17;42.13;98256.72;6281633;28;20431;-41
2022/05/26 08:49:15;;;;;;;2.50;0.80;;;;;;;23.95;39.34;98253.22;6277641;28;20296;-46
2022/05/26 08:52:25;;;;;;;0.33;0.33;;;;;;;24.27;40.73;98266.16;6260886;28;20235;-44
2022/05/26 08:55:32;;;;;;;0.80;0.40;;;;;;;24.77;39.35;98253.44;6278498;28;20372;-46
2022/05/26 08:58:46;;;;;;;0.63;0.50;;;;;;;25.51;38.35;98258.97;6277921;28;20285;-45
2022/05/26 09:01:58;;;;;;;3.47;0.67;;;;;;;25.37;39.98;98259.97;6273181;28;20223;-45
2022/05/26 09:05:11;;;;;;;0.63;0.33;;;;;;;25.75;38.63;98254.06;6275953;28;20321;-44
2022/05/26 09:14:50;;;;;;;2.47;0.60;;;;;;;25.57;38.17;98243.78;6277602;28;20227;-43
2022/05/26 09:17:53;;;;;;;0.50;0.50;;;;;;;25.54;38.12;98249.63;6277855;28;20368;-45
2022/05/26 09:21:12;;;;;;;1.63;0.57;;;;;;;26.19;36.80;98248.91;6275462;28;20229;-45
2022/05/26 09:24:36;;;;;;;0.98;0.50;;;;;;;26.61;36.36;98250.34;6277242;28;20226;-46
2022/05/26 09:27:49;;;;;;;0.47;0.43;;;;;;;26.36;36.05;98277.22;6277284;28;20223;-43
2022/05/26 09:30:52;;;;;;;1.90;0.63;;;;;;;26.01;35.06;98275.75;6277340;28;20705;-46
2022/05/26 09:34:17;;;;;;;3.10;0.80;;;;;;;25.95;34.94;98246.81;6277217;28;20625;-43
2022/05/26 09:37:43;;;;;;;0.77;0.50;;;;;;;26.45;34.28;98246.19;6268958;28;20783;-48
2022/05/26 09:40:47;;;;;;;1.48;0.73;;;;;;;26.27;35.06;98243.28;6262171;28;20230;-43
2022/05/26 09:43:55;;;;;;;2.60;0.68;;;;;;;26.89;35.44;98247.34;6272411;28;20709;-45
2022/05/26 09:47:01;;;;;;;1.00;0.70;;;;;;;27.14;35.89;98256.47;6276236;28;20284;-46
2022/05/26 09:50:08;;;;;;;2.65;0.63;;;;;;;27.44;35.03;98250.50;6268555;28;20226;-45
2022/05/26 09:53:38;;;;;;;2.03;0.70;;;;;;;27.61;35.20;98250.84;6273967;28;20291;-47
2022/05/26 09:56:42;;;;;;;1.85;0.50;;;;;;;27.84;34.25;98259.28;6271174;28;20235;-45
2022/05/26 09:59:45;;;;;;;0.80;0.68;;;;;;;27.58;34.30;98254.81;6272814;28;20246;-46
2022/05/26 10:02:50;;;;;;;2.92;0.60;;;;;;;27.95;35.56;98249.59;6275641;28;20233;-46
2022/05/26 10:06:25;;;;;;;1.23;0.50;;;;;;;28.20;33.20;98248.56;6277258;28;20321;-44
2022/05/26 10:09:33;;;;;;;2.10;0.77;;;;;;;27.71;32.50;98262.06;6259698;28;20233;-45
2022/05/26 10:13:09;;;;;;;0.52;0.50;;;;;;;27.54;32.34;98259.00;6275091;28;20287;-44
2022/05/26 10:16:38;;;;;;;1.30;0.50;;;;;;;28.10;32.67;98263.66;6274812;28;20231;-46
2022/05/26 10:20:08;;;;;;;1.85;0.70;;;;;;;27.88;32.44;98271.34;6277096;28;20226;-45
2022/05/26 10:23:59;;;;;;;1.20;0.80;;;;;;;27.75;32.40;98258.69;6272762;28;20240;-44
2022/05/26 10:27:13;;;;;;;2.13;0.57;;;;;;;28.07;33.53;98261.38;6251545;28;20284;-46
2022/05/26 10:30:42;;;;;;;0.77;0.50;;;;;;;28.76;33.45;98263.91;6277882;28;20230;-46
2022/05/26 10:33:59;;;;;;;1.10;0.50;;;;;;;28.82;32.07;98271.22;6273906;28;20740;-43
2022/05/26 10:37:14;;;;;;;1.20;0.60;;;;;;;28.61;31.39;98252.59;6276588;28;20691;-45
2022/05/26 10:40:54;;;;;;;1.35;0.80;;;;;;;29.22;31.96;98258.00;6277553;28;20623;-46
2022/05/26 10:44:08;;;;;;;1.02;0.80;;;;;;;29.30;31.45;98265.00;6276415;28;20241;-44
2022/05/26 10:47:17;;;;;;;1.67;0.52;;;;;;;29.44;30.62;98250.22;6256400;28;20329;-45
2022/05/26 10:50:20;;;;;;;2.17;0.60;;;;;;;29.78;30.89;98251.41;6276481;28;20425;-45
2022/05/26 10:53:31;;;;;;;1.98;0.80;;;;;;;29.06;31.49;98242.28;6092284;28;20235;-47
2022/05/26 10:56:43;;;;;;;0.88;0.60;;;;;;;28.67;32.11;98245.41;6274281;28;20229;-48
2022/05/26 10:59:59;;;;;;;0.68;0.50;;;;;;;28.96;32.90;98242.81;6275718;28;20223;-45
2022/05/26 11:03:11;;;;;;;2.35;0.70;;;;;;;28.74;29.90;98228.00;6282220;28;20231;-43
2022/05/26 11:06:30;;;;;;;0.65;0.60;;;;;;;29.32;31.77;98246.59;6282149;28;20227;-48
2022/05/26 11:09:57;;;;;;;0.82;0.68;;;;;;;29.75;28.87;98232.81;6280260;28;20245;-48
2022/05/26 11:13:13;;;;;;;1.27;0.50;;;;;;;29.36;30.59;98239.59;6280791;28;20233;-44
2022/05/26 11:20:09;;;;;;;1.38;0.50;;;;;;;28.99;29.74;98234.22;6280928;28;20251;-47
2022/05/26 11:23:17;;;;;;;2.83;0.80;;;;;;;29.35;27.95;98227.06;6282359;28;20231;-48
2022/05/26 11:26:19;;;;;;;1.85;0.47;;;;;;;29.75;29.94;98224.66;6280459;28;20230;-45
2022/05/26 11:29:46;;;;;;;1.58;0.40;;;;;;;29.55;29.58;98233.09;6281017;28;20609;-46
2022/05/26 11:36:21;;;;;;;1.35;0.50;;;;;;;29.49;29.60;98219.59;6281216;28;20233;-42
2022/05/26 11:39:29;;;;;;;2.20;0.60;;;;;;;29.53;27.99;98229.81;6281138;28;20286;-42
2022/05/26 11:42:35;;;;;;;3.30;0.63;;;;;;;29.52;27.94;98224.59;6281027;28;20231;-42
2022/05/26 11:45:50;;;;;;;0.93;0.50;;;;;;;29.67;28.21;98219.53;6282105;28;20254;-45
2022/05/26 11:48:52;;;;;;;1.65;0.60;;;;;;;29.57;28.54;98222.81;6280176;28;20301;-44
2022/05/26 11:51:54;;;;;;;2.40;0.52;;;;;;;29.15;28.18;98234.69;6280073;28;20703;-46
2022/05/26 11:54:59;;;;;;;1.38;0.88;;;;;;;29.36;29.22;98226.88;6279795;28;20399;-44
2022/05/26 11:58:40;;;;;;;0.80;0.50;;;;;;;29.17;28.05;98214.34;6279684;28;20302;-45
2022/05/26 12:01:45;;;;;;;0.52;0.40;;;;;;;29.26;29.18;98223.00;6179815;28;20229;-44
2022/05/26 12:04:49;;;;;;;0.82;0.50;;;;;;;29.39;30.00;98211.16;6179528;28;20311;-47
2022/05/26 12:07:52;;;;;;;0.52;0.50;;;;;;;29.46;31.15;98220.88;6175570;28;20225;-43
2022/05/26 12:11:01;;;;;;;1.05;0.60;;;;;;;29.78;30.34;98207.03;6170261;28;20241;-46
2022/05/26 12:14:05;;;;;;;2.67;0.60;;;;;;;29.35;29.00;98205.31;6176542;28;20229;-43
2022/05/26 12:17:38;;;;;;;0.60;0.60;;;;;;;28.90;28.33;98194.81;6178557;28;20240;-44
2022/05/26 12:20:42;;;;;;;2.20;0.60;;;;;;;28.83;29.96;98202.22;6184183;28;20303;-45
2022/05/26 12:23:45;;;;;;;1.65;0.60;;;;;;;29.00;30.56;98207.88;6179789;28;20237;-43
2022/05/26 13:26:17;;;;;;;1.45;0.60;;;;;;;30.96;25.82;98155.88;5318477;28;20318;-45
2022/05/26 13:29:21;;;;;;;1.85;0.60;;;;;;;30.99;26.96;98139.03;6254372;28;20313;-45
2022/05/26 13:35:59;;;;;;;0.80;0.60;;;;;;;31.90;25.04;98137.19;6253998;28;20227;-43
2022/05/26 13:39:08;;;;;;;1.00;0.52;;;;;;;31.43;26.62;98145.66;6253047;28;20219;-44
2022/05/26 13:42:14;;;;;;;2.65;0.60;;;;;;;31.07;26.30;98143.28;6254068;28;20635;-43
2022/05/26 13:45:26;;;;;;;0.73;0.60;;;;;;;31.68;26.14;98136.25;6253135;28;20239;-44
2022/05/26 13:48:42;;;;;;;1.17;0.60;;;;;;;31.48;25.27;98147.63;6252356;28;20231;-43
2022/05/26 13:51:50;;;;;;;2.08;0.80;;;;;;;31.50;24.60;98131.84;6252760;28;20458;-45
2022/05/26 13:54:59;;;;;;;0.68;0.60;;;;;;;31.99;24.59;98132.13;6253775;28;20235;-47
2022/05/26 13:58:07;;;;;;;0.60;0.60;;;;;;;33.17;23.38;98141.69;6252218;28;20236;-43
2022/05/26 14:01:12;;;;;;;0.80;0.45;;;;;;;34.13;22.07;98126.19;6251090;28;20247;-45
2022/05/26 14:04:34;;;;;;;1.40;0.50;;;;;;;35.90;20.81;98119.72;6227002;28;20242;-45
2022/05/26 14:07:58;;;;;;;3.38;0.70;;;;;;;37.97;19.37;98113.31;6250042;28;20342;-46
2022/05/26 14:11:01;;;;;;;3.13;0.60;;;;;;;38.40;18.88;98111.53;6253497;28;20232;-44
2022/05/26 14:14:23;;;;;;;1.20;0.52;;;;;;;39.98;17.22;98107.44;6252992;28;20250;-45
2022/05/26 14:17:33;;;;;;;1.55;0.65;;;;;;;39.88;17.20;98113.16;6246879;28;20666;-47
2022/05/26 14:20:35;;;;;;;1.85;0.63;;;;;;;40.03;16.54;98112.06;6251527;28;20223;-44
2022/05/26 14:23:54;;;;;;;0.70;0.60;;;;;;;41.13;14.46;98113.78;6252058;28;20223;-43
2022/05/26 14:27:04;;;;;;;1.15;0.68;;;;;;;41.82;14.52;98102.50;6262720;28;20597;-45
2022/05/26 14:30:38;;;;;;;1.52;0.40;;;;;;;42.28;14.45;98094.63;6275519;28;20230;-45
2022/05/26 14:33:54;;;;;;;2.03;0.70;;;;;;;42.48;13.75;98100.78;6273994;28;20599;-44
2022/05/26 14:36:58;;;;;;;2.35;0.90;;;;;;;41.37;14.82;98099.66;6274494;28;20242;-46
2022/05/26 14:40:00;;;;;;;0.77;0.50;;;;;;;40.93;14.52;98089.28;6270194;28;20234;-43
2022/05/26 14:43:07;;;;;;;0.65;0.60;;;;;;;41.73;14.39;98094.09;6261696;28;20232;-44
2022/05/26 14:46:09;;;;;;;1.65;0.60;;;;;;;42.10;14.21;98095.69;6282517;28;20728;-42
2022/05/26 14:49:13;;;;;;;1.85;0.60;;;;;;;42.21;14.13;98083.19;6276660;28;20230;-46
2022/05/26 14:52:19;;;;;;;2.78;0.43;;;;;;;42.97;13.44;98078.22;6272097;28;20240;-46
2022/05/26 14:55:27;;;;;;;1.88;0.60;;;;;;;43.66;13.13;98080.25;6282432;28;20307;-44
2022/05/26 14:58:29;;;;;;;1.27;0.50;;;;;;;43.75;12.86;98079.09;6281691;28;20400;-45
2022/05/26 15:01:32;;;;;;;1.85;0.70;;;;;;;43.47;13.28;98072.22;6279611;28;20241;-47
2022/05/26 15:04:34;;;;;;;2.33;0.60;;;;;;;43.32;13.42;98076.34;6278984;28;21291;-47
2022/05/26 15:07:38;;;;;;;0.63;0.63;;;;;;;42.16;13.78;98069.41;6280102;28;20338;-44
2022/05/26 15:10:40;;;;;;;1.80;0.55;;;;;;;41.91;14.39;98064.53;6280363;28;20288;-45
2022/05/26 15:13:44;;;;;;;0.98;0.45;;;;;;;42.29;13.89;98067.69;6262991;28;20258;-45
2022/05/26 15:16:47;;;;;;;1.65;0.50;;;;;;;41.68;13.73;98062.91;6281061;28;20245;-43
2022/05/26 15:19:56;;;;;;;0.52;0.40;;;;;;;41.58;14.50;98064.81;6278584;28;20245;-45
2022/05/26 15:22:58;;;;;;;1.05;0.70;;;;;;;41.87;13.67;98072.66;6280371;28;20235;-43
2022/05/26 15:26:13;;;;;;;2.38;0.63;;;;;;;38.99;16.03;98062.56;6276761;28;20588;-45
2022/05/26 15:29:16;;;;;;;0.93;0.50;;;;;;;37.01;18.02;98064.41;6280614;28;20231;-44
2022/05/26 15:32:45;;;;;;;0.77;0.50;;;;;;;38.28;16.90;98057.88;6282355;28;20287;-46
2022/05/26 15:35:48;;;;;;;0.95;0.68;;;;;;;35.92;18.94;98059.81;6278530;28;20238;-46
2022/05/26 15:38:52;;;;;;;1.65;0.60;;;;;;;37.52;17.03;98045.63;6279530;28;20228;-48
2022/05/26 15:41:55;;;;;;;1.00;0.50;;;;;;;34.05;20.61;98053.53;6281328;28;20234;-44
2022/05/26 15:44:57;;;;;;;0.43;0.40;;;;;;;31.22;24.81;98052.78;6278414;28;20694;-48
2022/05/26 15:47:59;;;;;;;2.90;0.57;;;;;;;29.39;26.58;98070.56;6278671;28;20230;-44
2022/05/26 15:51:03;;;;;;;1.75;0.68;;;;;;;28.37;27.87;98057.94;6269162;28;20256;-44
2022/05/26 15:54:06;;;;;;;1.13;0.60;;;;;;;28.35;28.74;98060.88;6278232;28;20478;-45
2022/05/26 15:57:10;;;;;;;1.10;0.40;;;;;;;28.47;28.69;98058.22;6280929;28;20222;-47
2022/05/26 16:00:19;;;;;;;1.80;0.70;;;;;;;27.82;30.54;98064.16;6283092;28;20198;-44
2022/05/26 16:03:23;;;;;;;24.65;22.20;;;;;;;30.29;29.24;98057.47;6279278;28;20230;-43
2022/05/26 16:06:26;;;;;;;5.82;5.22;;;;;;;31.85;24.63;98068.84;6280089;28;20222;-42
2022/05/26 16:09:28;;;;;;;2.00;1.85;;;;;;;29.94;27.85;98070.28;6279867;28;20275;-47
2022/05/26 16:12:30;;;;;;;2.33;1.67;;;;;;;28.25;29.33;98068.72;6279595;28;20241;-47
2022/05/26 16:15:33;;;;;;;2.40;2.08;;;;;;;31.40;24.96;98061.56;6279385;28;20368;-44
2022/05/26 16:18:36;;;;;;;3.60;1.60;;;;;;;30.80;27.30;98058.53;6278866;28;20238;-43
2022/05/26 16:21:40;;;;;;;3.10;1.30;;;;;;;30.96;27.21;98067.81;6279728;28;20557;-43